sensor_id;sensor_type;location;lat;lon;timestamp;pressure;altitude;pressure_sealevel;temperature;humidity
12666;BME280;58531;59.050;17.416;2022-10-30T00:02:26;100816.84;;;5.10;100.00
12666;BME280;58531;59.050;17.416;2022-10-30T00:04:59;100817.63;;;5.03;100.00
12666;BME280;58531;59.050;17.416;2022-10-30T00:07:30;100819.66;;;4.85;100.00
12666;BME280;58531;59.050;17.416;2022-10-30T00:09:59;100812.59;;;4.75;100.00
12666;BME280;58531;59.050;17.416;2022-10-30T00:12:29;100814.56;;;4.61;100.00
12666;BME280;58531;59.050;17.416;2022-10-30T00:14:56;100818.06;;;4.48;100.00
12666;BME280;58531;59.050;17.416;2022-10-30T00:17:30;100816.97;;;4.42;100.00
12666;BME280;58531;59.050;17.416;2022-10-30T00:20:01;100812.94;;;4.27;100.00
12666;BME280;58531;59.050;17.416;2022-10-30T00:22:45;100815.25;;;4.18;100.00
12666;BME280;58531;59.050;17.416;2022-10-30T00:25:13;100817.91;;;4.14;100.00
12666;BME280;58531;59.050;17.416;2022-10-30T00:27:42;100823.25;;;4.07;100.00
12666;BME280;58531;59.050;17.416;2022-10-30T00:30:15;100820.59;;;4.04;100.00
12666;BME280;58531;59.050;17.416;2022-10-30T00:32:45;100820.63;;;3.97;100.00
12666;BME280;58531;59.050;17.416;2022-10-30T00:38:00;100813.94;;;3.78;100.00
12666;BME280;58531;59.050;17.416;2022-10-30T00:40:33;100815.47;;;3.69;100.00
12666;BME280;58531;59.050;17.416;2022-10-30T00:43:36;100812.50;;;3.60;100.00
12666;BME280;58531;59.050;17.416;2022-10-30T00:46:07;100810.25;;;3.51;100.00
12666;BME280;58531;59.050;17.416;2022-10-30T00:48:42;100810.28;;;3.41;100.00
12666;BME280;58531;59.050;17.416;2022-10-30T00:51:15;100805.38;;;3.36;100.00
12666;BME280;58531;59.050;17.416;2022-10-30T00:53:51;100814.47;;;3.32;100.00
12666;BME280;58531;59.050;17.416;2022-10-30T00:56:28;100816.34;;;3.31;100.00
12666;BME280;58531;59.050;17.416;2022-10-30T00:58:58;100814.09;;;3.26;100.00
12666;BME280;58531;59.050;17.416;2022-10-30T01:01:32;100823.13;;;3.22;100.00
12666;BME280;58531;59.050;17.416;2022-10-30T01:04:05;100824.66;;;3.12;100.00
12666;BME280;58531;59.050;17.416;2022-10-30T01:06:34;100831.47;;;3.06;100.00
12666;BME280;58531;59.050;17.416;2022-10-30T01:09:06;100836.34;;;3.04;100.00
12666;BME280;58531;59.050;17.416;2022-10-30T01:11:34;100832.22;;;2.96;100.00
12666;BME280;58531;59.050;17.416;2022-10-30T01:14:06;100832.22;;;2.89;100.00
12666;BME280;58531;59.050;17.416;2022-10-30T01:16:46;100850.31;;;2.84;100.00
12666;BME280;58531;59.050;17.416;2022-10-30T01:19:27;100852.19;;;2.76;100.00
12666;BME280;58531;59.050;17.416;2022-10-30T01:22:10;100856.34;;;2.70;100.00
12666;BME280;58531;59.050;17.416;2022-10-30T01:24:57;100852.19;;;2.69;100.00
12666;BME280;58531;59.050;17.416;2022-10-30T01:27:37;100854.81;;;2.62;100.00
12666;BME280;58531;59.050;17.416;2022-10-30T01:30:19;100858.56;;;2.61;100.00
12666;BME280;58531;59.050;17.416;2022-10-30T01:32:58;100855.53;;;2.56;100.00
12666;BME280;58531;59.050;17.416;2022-10-30T01:35:38;100855.94;;;2.51;100.00
12666;BME280;58531;59.050;17.416;2022-10-30T01:38:16;100857.81;;;2.50;100.00
12666;BME280;58531;59.050;17.416;2022-10-30T01:40:45;100865.72;;;2.50;100.00
12666;BME280;58531;59.050;17.416;2022-10-30T01:43:13;100871.00;;;2.57;100.00
12666;BME280;58531;59.050;17.416;2022-10-30T01:45:49;100872.13;;;2.63;100.00
12666;BME280;58531;59.050;17.416;2022-10-30T01:48:50;100863.09;;;2.64;100.00
12666;BME280;58531;59.050;17.416;2022-10-30T01:51:32;100855.56;;;2.87;100.00
12666;BME280;58531;59.050;17.416;2022-10-30T01:54:08;100854.81;;;3.11;100.00
12666;BME280;58531;59.050;17.416;2022-10-30T01:56:46;100859.34;;;3.18;100.00
12666;BME280;58531;59.050;17.416;2022-10-30T01:59:22;100862.34;;;3.20;100.00
12666;BME280;58531;59.050;17.416;2022-10-30T02:01:53;100871.38;;;3.12;100.00
12666;BME280;58531;59.050;17.416;2022-10-30T02:04:21;100863.50;;;3.05;100.00
12666;BME280;58531;59.050;17.416;2022-10-30T02:06:52;100851.06;;;2.95;100.00
12666;BME280;58531;59.050;17.416;2022-10-30T02:09:20;100857.84;;;2.89;100.00
12666;BME280;58531;59.050;17.416;2022-10-30T02:11:50;100850.69;;;2.89;100.00
12666;BME280;58531;59.050;17.416;2022-10-30T02:14:22;100854.44;;;2.88;100.00
12666;BME280;58531;59.050;17.416;2022-10-30T02:16:54;100857.09;;;2.74;100.00
12666;BME280;58531;59.050;17.416;2022-10-30T02:19:23;100857.06;;;2.53;100.00
12666;BME280;58531;59.050;17.416;2022-10-30T02:21:54;100854.75;;;2.34;100.00
12666;BME280;58531;59.050;17.416;2022-10-30T02:24:21;100866.41;;;2.27;100.00
12666;BME280;58531;59.050;17.416;2022-10-30T02:26:49;100863.41;;;2.25;100.00
12666;BME280;58531;59.050;17.416;2022-10-30T02:29:17;100867.53;;;2.22;100.00
12666;BME280;58531;59.050;17.416;2022-10-30T02:31:47;100869.00;;;2.16;100.00
12666;BME280;58531;59.050;17.416;2022-10-30T02:34:15;100874.66;;;2.18;100.00
12666;BME280;58531;59.050;17.416;2022-10-30T02:36:43;100881.44;;;2.16;100.00
12666;BME280;58531;59.050;17.416;2022-10-30T02:39:16;100888.59;;;2.19;100.00
12666;BME280;58531;59.050;17.416;2022-10-30T02:41:44;100889.69;;;2.14;100.00
12666;BME280;58531;59.050;17.416;2022-10-30T02:44:12;100882.56;;;2.15;100.00
12666;BME280;58531;59.050;17.416;2022-10-30T02:46:40;100880.28;;;2.10;100.00
12666;BME280;58531;59.050;17.416;2022-10-30T02:49:07;100880.25;;;2.06;100.00
12666;BME280;58531;59.050;17.416;2022-10-30T02:51:36;100878.00;;;2.08;100.00
12666;BME280;58531;59.050;17.416;2022-10-30T02:54:04;100883.25;;;2.05;100.00
12666;BME280;58531;59.050;17.416;2022-10-30T02:56:33;100882.88;;;2.03;100.00
12666;BME280;58531;59.050;17.416;2022-10-30T02:59:03;100884.75;;;1.99;100.00
12666;BME280;58531;59.050;17.416;2022-10-30T03:01:31;100874.22;;;1.99;100.00
12666;BME280;58531;59.050;17.416;2022-10-30T03:03:59;100879.81;;;1.94;100.00
12666;BME280;58531;59.050;17.416;2022-10-30T03:06:28;100890.75;;;1.92;100.00
12666;BME280;58531;59.050;17.416;2022-10-30T03:08:55;100890.31;;;1.87;100.00
12666;BME280;58531;59.050;17.416;2022-10-30T03:11:23;100885.41;;;1.82;100.00
12666;BME280;58531;59.050;17.416;2022-10-30T03:13:53;100877.88;;;1.80;100.00
12666;BME280;58531;59.050;17.416;2022-10-30T03:16:23;100888.41;;;1.77;100.00
12666;BME280;58531;59.050;17.416;2022-10-30T03:18:54;100891.41;;;1.72;100.00
12666;BME280;58531;59.050;17.416;2022-10-30T03:21:24;100890.63;;;1.68;100.00
12666;BME280;58531;59.050;17.416;2022-10-30T03:23:57;100885.31;;;1.64;100.00
12666;BME280;58531;59.050;17.416;2022-10-30T03:26:24;100892.44;;;1.60;100.00
12666;BME280;58531;59.050;17.416;2022-10-30T03:28:53;100904.06;;;1.56;100.00
12666;BME280;58531;59.050;17.416;2022-10-30T03:31:21;100901.44;;;1.56;100.00
12666;BME280;58531;59.050;17.416;2022-10-30T03:33:49;100900.28;;;1.53;100.00
12666;BME280;58531;59.050;17.416;2022-10-30T03:36:17;100899.50;;;1.46;100.00
12666;BME280;58531;59.050;17.416;2022-10-30T03:38:45;100902.50;;;1.44;100.00
12666;BME280;58531;59.050;17.416;2022-10-30T03:41:12;100900.25;;;1.46;100.00
12666;BME280;58531;59.050;17.416;2022-10-30T03:43:43;100902.53;;;1.48;100.00
12666;BME280;58531;59.050;17.416;2022-10-30T03:46:13;100895.78;;;1.50;100.00
12666;BME280;58531;59.050;17.416;2022-10-30T03:48:41;100899.88;;;1.48;100.00
12666;BME280;58531;59.050;17.416;2022-10-30T03:51:08;100914.94;;;1.51;100.00
12666;BME280;58531;59.050;17.416;2022-10-30T03:53:36;100906.81;;;1.70;100.00
12666;BME280;58531;59.050;17.416;2022-10-30T03:56:04;100920.00;;;1.77;100.00
12666;BME280;58531;59.050;17.416;2022-10-30T03:58:36;100924.28;;;2.02;100.00
12666;BME280;58531;59.050;17.416;2022-10-30T04:01:05;100916.84;;;2.25;100.00
12666;BME280;58531;59.050;17.416;2022-10-30T04:03:36;100921.81;;;2.58;100.00
12666;BME280;58531;59.050;17.416;2022-10-30T04:06:03;100912.06;;;2.76;100.00
12666;BME280;58531;59.050;17.416;2022-10-30T04:08:31;100904.59;;;3.06;100.00
12666;BME280;58531;59.050;17.416;2022-10-30T04:10:59;100900.81;;;3.24;100.00
12666;BME280;58531;59.050;17.416;2022-10-30T04:13:26;100906.81;;;3.35;100.00
12666;BME280;58531;59.050;17.416;2022-10-30T04:15:54;100909.81;;;3.58;100.00
12666;BME280;58531;59.050;17.416;2022-10-30T04:18:23;100910.56;;;3.69;100.00
12666;BME280;58531;59.050;17.416;2022-10-30T04:20:52;100910.09;;;3.88;100.00
12666;BME280;58531;59.050;17.416;2022-10-30T04:23:20;100906.72;;;3.91;100.00
12666;BME280;58531;59.050;17.416;2022-10-30T04:25:48;100901.41;;;3.98;100.00
12666;BME280;58531;59.050;17.416;2022-10-30T04:28:17;100904.06;;;4.01;100.00
12666;BME280;58531;59.050;17.416;2022-10-30T04:30:46;100908.94;;;4.03;100.00
12666;BME280;58531;59.050;17.416;2022-10-30T04:33:14;100911.22;;;4.01;100.00
12666;BME280;58531;59.050;17.416;2022-10-30T04:35:41;100919.50;;;4.06;100.00
12666;BME280;58531;59.050;17.416;2022-10-30T04:38:12;100914.97;;;4.07;100.00
12666;BME280;58531;59.050;17.416;2022-10-30T04:40:41;100905.16;;;4.04;100.00
12666;BME280;58531;59.050;17.416;2022-10-30T04:43:10;100921.78;;;4.01;100.00
12666;BME280;58531;59.050;17.416;2022-10-30T04:45:38;100921.41;;;3.99;100.00
12666;BME280;58531;59.050;17.416;2022-10-30T04:48:09;100924.03;;;3.99;100.00
12666;BME280;58531;59.050;17.416;2022-10-30T04:50:38;100924.81;;;3.96;100.00
12666;BME280;58531;59.050;17.416;2022-10-30T04:53:07;100925.56;;;3.93;100.00
12666;BME280;58531;59.050;17.416;2022-10-30T04:55:42;100927.84;;;3.91;100.00
12666;BME280;58531;59.050;17.416;2022-10-30T04:58:11;100934.63;;;3.92;100.00
12666;BME280;58531;59.050;17.416;2022-10-30T05:00:44;100935.78;;;3.91;100.00
12666;BME280;58531;59.050;17.416;2022-10-30T05:03:17;100936.91;;;3.86;100.00
12666;BME280;58531;59.050;17.416;2022-10-30T05:05:46;100950.50;;;3.85;100.00
12666;BME280;58531;59.050;17.416;2022-10-30T05:08:13;100952.03;;;3.82;100.00
12666;BME280;58531;59.050;17.416;2022-10-30T05:10:42;100949.78;;;3.74;100.00
12666;BME280;58531;59.050;17.416;2022-10-30T05:13:10;100953.56;;;3.73;100.00
12666;BME280;58531;59.050;17.416;2022-10-30T05:15:38;100955.44;;;3.69;100.00
12666;BME280;58531;59.050;17.416;2022-10-30T05:18:05;100962.25;;;3.63;100.00
12666;BME280;58531;59.050;17.416;2022-10-30T05:20:33;100952.81;;;3.62;100.00
12666;BME280;58531;59.050;17.416;2022-10-30T05:23:00;100953.56;;;3.62;100.00
12666;BME280;58531;59.050;17.416;2022-10-30T05:25:32;100958.09;;;3.69;100.00
12666;BME280;58531;59.050;17.416;2022-10-30T05:28:04;100959.97;;;3.65;100.00
12666;BME280;58531;59.050;17.416;2022-10-30T05:30:33;100961.88;;;3.61;100.00
12666;BME280;58531;59.050;17.416;2022-10-30T05:33:02;100965.66;;;3.56;100.00
12666;BME280;58531;59.050;17.416;2022-10-30T05:35:31;100967.16;;;3.54;100.00
12666;BME280;58531;59.050;17.416;2022-10-30T05:38:02;100966.03;;;3.51;100.00
12666;BME280;58531;59.050;17.416;2022-10-30T05:40:30;100969.06;;;3.53;100.00
12666;BME280;58531;59.050;17.416;2022-10-30T05:42:59;100953.59;;;3.48;100.00
12666;BME280;58531;59.050;17.416;2022-10-30T05:45:30;100955.84;;;3.36;100.00
12666;BME280;58531;59.050;17.416;2022-10-30T05:48:00;100955.84;;;3.22;100.00
12666;BME280;58531;59.050;17.416;2022-10-30T05:50:28;100969.78;;;3.12;100.00
12666;BME280;58531;59.050;17.416;2022-10-30T05:52:56;100966.41;;;3.05;100.00
12666;BME280;58531;59.050;17.416;2022-10-30T05:55:24;100970.88;;;2.97;100.00
12666;BME280;58531;59.050;17.416;2022-10-30T05:57:54;100985.53;;;2.84;100.00
12666;BME280;58531;59.050;17.416;2022-10-30T06:00:23;100980.63;;;2.72;100.00
12666;BME280;58531;59.050;17.416;2022-10-30T06:02:58;100983.25;;;2.69;100.00
12666;BME280;58531;59.050;17.416;2022-10-30T06:05:25;100977.22;;;2.61;100.00
12666;BME280;58531;59.050;17.416;2022-10-30T06:07:55;100976.44;;;2.54;100.00
12666;BME280;58531;59.050;17.416;2022-10-30T06:10:22;100974.91;;;2.49;100.00
12666;BME280;58531;59.050;17.416;2022-10-30T06:12:53;100970.38;;;2.46;100.00
12666;BME280;58531;59.050;17.416;2022-10-30T06:15:21;100971.13;;;2.43;100.00
12666;BME280;58531;59.050;17.416;2022-10-30T06:17:52;100967.72;;;2.43;100.00
12666;BME280;58531;59.050;17.416;2022-10-30T06:20:22;100969.59;;;2.42;100.00
12666;BME280;58531;59.050;17.416;2022-10-30T06:22:54;100983.94;;;2.48;100.00
12666;BME280;58531;59.050;17.416;2022-10-30T06:25:21;100985.09;;;2.54;100.00
12666;BME280;58531;59.050;17.416;2022-10-30T06:27:49;100996.41;;;2.55;100.00
12666;BME280;58531;59.050;17.416;2022-10-30T06:30:17;100999.03;;;2.55;100.00
12666;BME280;58531;59.050;17.416;2022-10-30T06:32:46;100996.38;;;2.51;100.00
12666;BME280;58531;59.050;17.416;2022-10-30T06:35:16;100994.47;;;2.48;100.00
12666;BME280;58531;59.050;17.416;2022-10-30T06:37:47;101001.25;;;2.49;100.00
12666;BME280;58531;59.050;17.416;2022-10-30T06:40:16;100994.81;;;2.43;100.00
12666;BME280;58531;59.050;17.416;2022-10-30T06:42:44;101000.84;;;2.37;100.00
12666;BME280;58531;59.050;17.416;2022-10-30T06:45:12;101006.84;;;2.34;100.00
12666;BME280;58531;59.050;17.416;2022-10-30T06:47:41;101006.09;;;2.37;100.00
12666;BME280;58531;59.050;17.416;2022-10-30T06:50:10;101021.91;;;2.40;100.00
12666;BME280;58531;59.050;17.416;2022-10-30T06:52:39;101029.44;;;2.38;100.00
12666;BME280;58531;59.050;17.416;2022-10-30T06:55:07;101032.47;;;2.40;100.00
12666;BME280;58531;59.050;17.416;2022-10-30T06:57:35;101040.75;;;2.42;100.00
12666;BME280;58531;59.050;17.416;2022-10-30T07:00:03;101047.16;;;2.41;100.00
12666;BME280;58531;59.050;17.416;2022-10-30T07:02:32;101043.78;;;2.44;100.00
12666;BME280;58531;59.050;17.416;2022-10-30T07:05:00;101049.06;;;2.44;100.00
12666;BME280;58531;59.050;17.416;2022-10-30T07:07:29;101049.06;;;2.44;100.00
12666;BME280;58531;59.050;17.416;2022-10-30T07:10:03;101058.84;;;2.44;100.00
12666;BME280;58531;59.050;17.416;2022-10-30T07:12:31;101058.09;;;2.43;100.00
12666;BME280;58531;59.050;17.416;2022-10-30T07:14:58;101059.63;;;2.51;100.00
12666;BME280;58531;59.050;17.416;2022-10-30T07:17:27;101068.31;;;2.55;100.00
12666;BME280;58531;59.050;17.416;2022-10-30T07:19:57;101066.06;;;2.61;100.00
12666;BME280;58531;59.050;17.416;2022-10-30T07:22:27;101070.25;;;2.69;100.00
12666;BME280;58531;59.050;17.416;2022-10-30T07:24:54;101070.31;;;2.79;100.00
12666;BME280;58531;59.050;17.416;2022-10-30T07:27:24;101079.75;;;2.84;100.00
12666;BME280;58531;59.050;17.416;2022-10-30T07:29:51;101080.88;;;2.86;100.00
12666;BME280;58531;59.050;17.416;2022-10-30T07:32:19;101075.25;;;2.88;100.00
12666;BME280;58531;59.050;17.416;2022-10-30T07:34:51;101077.91;;;2.98;100.00
12666;BME280;58531;59.050;17.416;2022-10-30T07:37:19;101085.50;;;3.14;100.00
12666;BME280;58531;59.050;17.416;2022-10-30T07:39:48;101093.81;;;3.23;100.00
12666;BME280;58531;59.050;17.416;2022-10-30T07:42:16;101093.09;;;3.29;100.00
12666;BME280;58531;59.050;17.416;2022-10-30T07:44:46;101097.25;;;3.30;100.00
12666;BME280;58531;59.050;17.416;2022-10-30T07:47:13;101093.09;;;3.29;100.00
12666;BME280;58531;59.050;17.416;2022-10-30T07:49:41;101097.25;;;3.30;100.00
12666;BME280;58531;59.050;17.416;2022-10-30T07:52:12;101094.22;;;3.35;100.00
12666;BME280;58531;59.050;17.416;2022-10-30T07:54:39;101096.13;;;3.42;100.00
12666;BME280;58531;59.050;17.416;2022-10-30T07:57:07;101094.63;;;3.51;100.00
12666;BME280;58531;59.050;17.416;2022-10-30T07:59:34;101096.91;;;3.56;100.00
12666;BME280;58531;59.050;17.416;2022-10-30T08:02:04;101100.72;;;3.69;100.00
12666;BME280;58531;59.050;17.416;2022-10-30T08:04:32;101101.84;;;3.85;100.00
12666;BME280;58531;59.050;17.416;2022-10-30T08:07:00;101096.94;;;3.91;100.00
12666;BME280;58531;59.050;17.416;2022-10-30T08:09:28;101093.16;;;3.99;100.00
12666;BME280;58531;59.050;17.416;2022-10-30T08:11:55;101097.69;;;4.05;100.00
12666;BME280;58531;59.050;17.416;2022-10-30T08:14:22;101107.13;;;4.10;100.00
12666;BME280;58531;59.050;17.416;2022-10-30T08:16:50;101110.50;;;4.10;100.00
12666;BME280;58531;59.050;17.416;2022-10-30T08:19:33;101110.53;;;4.14;100.00
12666;BME280;58531;59.050;17.416;2022-10-30T08:22:03;101109.38;;;4.15;100.00
12666;BME280;58531;59.050;17.416;2022-10-30T08:24:40;101114.66;;;4.22;100.00
12666;BME280;58531;59.050;17.416;2022-10-30T08:27:09;101113.53;;;4.30;100.00
12666;BME280;58531;59.050;17.416;2022-10-30T08:29:36;101116.13;;;4.37;100.00
12666;BME280;58531;59.050;17.416;2022-10-30T08:32:05;101121.78;;;4.46;100.00
12666;BME280;58531;59.050;17.416;2022-10-30T08:34:34;101129.34;;;4.51;100.00
12666;BME280;58531;59.050;17.416;2022-10-30T08:37:03;101121.78;;;4.56;100.00
12666;BME280;58531;59.050;17.416;2022-10-30T08:39:35;101127.06;;;4.60;100.00
12666;BME280;58531;59.050;17.416;2022-10-30T08:42:03;101124.41;;;4.63;100.00
12666;BME280;58531;59.050;17.416;2022-10-30T08:44:32;101128.19;;;4.72;100.00
12666;BME280;58531;59.050;17.416;2022-10-30T08:47:01;101130.81;;;4.79;100.00
12666;BME280;58531;59.050;17.416;2022-10-30T08:49:29;101132.28;;;4.84;100.00
12666;BME280;58531;59.050;17.416;2022-10-30T08:51:58;101135.25;;;4.96;100.00
12666;BME280;58531;59.050;17.416;2022-10-30T08:54:26;101139.06;;;4.99;100.00
12666;BME280;58531;59.050;17.416;2022-10-30T08:56:54;101144.69;;;5.04;100.00
12666;BME280;58531;59.050;17.416;2022-10-30T08:59:25;101141.66;;;5.09;100.00
12666;BME280;58531;59.050;17.416;2022-10-30T09:01:55;101154.13;;;5.12;100.00
12666;BME280;58531;59.050;17.416;2022-10-30T09:04:29;101154.13;;;5.12;100.00
12666;BME280;58531;59.050;17.416;2022-10-30T09:07:02;101155.22;;;5.18;100.00
12666;BME280;58531;59.050;17.416;2022-10-30T09:09:31;101153.31;;;5.22;100.00
12666;BME280;58531;59.050;17.416;2022-10-30T09:12:01;101151.78;;;5.25;100.00
12666;BME280;58531;59.050;17.416;2022-10-30T09:14:32;101151.03;;;5.31;100.00
12666;BME280;58531;59.050;17.416;2022-10-30T09:17:01;101150.97;;;5.42;100.00
12666;BME280;58531;59.050;17.416;2022-10-30T09:19:28;101150.56;;;5.47;100.00
12666;BME280;58531;59.050;17.416;2022-10-30T09:21:56;101156.22;;;5.45;100.00
12666;BME280;58531;59.050;17.416;2022-10-30T09:24:29;101147.13;;;5.46;100.00
12666;BME280;58531;59.050;17.416;2022-10-30T09:26:59;101149.03;;;5.46;100.00
12666;BME280;58531;59.050;17.416;2022-10-30T09:29:28;101147.88;;;5.50;100.00
12666;BME280;58531;59.050;17.416;2022-10-30T09:31:56;101154.28;;;5.60;100.00
12666;BME280;58531;59.050;17.416;2022-10-30T09:34:23;101156.56;;;5.58;100.00
12666;BME280;58531;59.050;17.416;2022-10-30T09:36:56;101153.47;;;5.63;100.00
12666;BME280;58531;59.050;17.416;2022-10-30T09:39:25;101154.16;;;5.77;100.00
12666;BME280;58531;59.050;17.416;2022-10-30T09:45:21;101153.00;;;5.82;100.00
12666;BME280;58531;59.050;17.416;2022-10-30T09:48:03;101146.56;;;5.86;100.00
12666;BME280;58531;59.050;17.416;2022-10-30T09:50:39;101165.13;;;5.86;100.00
12666;BME280;58531;59.050;17.416;2022-10-30T09:53:24;101163.91;;;5.94;100.00
12666;BME280;58531;59.050;17.416;2022-10-30T09:56:03;101162.75;;;5.95;100.00
12666;BME280;58531;59.050;17.416;2022-10-30T09:58:49;101168.78;;;5.99;100.00
12666;BME280;58531;59.050;17.416;2022-10-30T10:01:30;101159.69;;;6.03;100.00
12666;BME280;58531;59.050;17.416;2022-10-30T10:04:15;101159.97;;;6.12;100.00
12666;BME280;58531;59.050;17.416;2022-10-30T10:06:52;101164.84;;;6.21;100.00
12666;BME280;58531;59.050;17.416;2022-10-30T10:09:24;101172.38;;;6.26;100.00
12666;BME280;58531;59.050;17.416;2022-10-30T10:11:59;101180.69;;;6.28;100.00
12666;BME280;58531;59.050;17.416;2022-10-30T10:14:45;101174.25;;;6.29;100.00
12666;BME280;58531;59.050;17.416;2022-10-30T10:17:22;101174.63;;;6.31;100.00
12666;BME280;58531;59.050;17.416;2022-10-30T10:19:56;101174.94;;;6.36;100.00
12666;BME280;58531;59.050;17.416;2022-10-30T10:22:35;101182.44;;;6.45;100.00
12666;BME280;58531;59.050;17.416;2022-10-30T10:25:13;101182.84;;;6.43;100.00
12666;BME280;58531;59.050;17.416;2022-10-30T10:28:15;101184.91;;;6.66;100.00
12666;BME280;58531;59.050;17.416;2022-10-30T10:31:25;101177.38;;;6.61;100.00
12666;BME280;58531;59.050;17.416;2022-10-30T10:35:19;101185.97;;;6.72;100.00
12666;BME280;58531;59.050;17.416;2022-10-30T10:37:55;101183.69;;;6.74;100.00
12666;BME280;58531;59.050;17.416;2022-10-30T10:40:43;101184.06;;;6.76;100.00
12666;BME280;58531;59.050;17.416;2022-10-30T10:43:41;101168.84;;;6.80;100.00
12666;BME280;58531;59.050;17.416;2022-10-30T10:46:50;101177.84;;;6.89;92.71
12666;BME280;58531;59.050;17.416;2022-10-30T10:49:37;101174.88;;;6.84;96.73
12666;BME280;58531;59.050;17.416;2022-10-30T10:52:33;101171.06;;;6.85;97.77
12666;BME280;58531;59.050;17.416;2022-10-30T10:55:17;101167.22;;;6.89;95.85
12666;BME280;58531;59.050;17.416;2022-10-30T10:58:07;101173.91;;;7.00;95.28
12666;BME280;58531;59.050;17.416;2022-10-30T11:00:54;101173.53;;;7.02;97.02
12666;BME280;58531;59.050;17.416;2022-10-30T11:03:28;101170.44;;;7.07;97.20
12666;BME280;58531;59.050;17.416;2022-10-30T11:06:20;101180.94;;;7.17;95.27
12666;BME280;58531;59.050;17.416;2022-10-30T11:09:11;101180.50;;;7.22;92.97
12666;BME280;58531;59.050;17.416;2022-10-30T11:11:52;101188.03;;;7.24;90.42
12666;BME280;58531;59.050;17.416;2022-10-30T11:14:32;101191.91;;;7.19;86.15
12666;BME280;58531;59.050;17.416;2022-10-30T11:17:09;101189.25;;;7.19;86.91
12666;BME280;58531;59.050;17.416;2022-10-30T11:19:47;101177.44;;;7.24;85.44
12666;BME280;58531;59.050;17.416;2022-10-30T11:22:39;101196.28;;;7.36;81.71
12666;BME280;58531;59.050;17.416;2022-10-30T11:25:21;101184.00;;;7.46;79.84
12666;BME280;58531;59.050;17.416;2022-10-30T11:31:20;101180.03;;;7.57;81.50
12666;BME280;58531;59.050;17.416;2022-10-30T12:14:41;101191.69;;;8.42;72.31
12666;BME280;58531;59.050;17.416;2022-10-30T12:17:29;101181.38;;;8.44;69.16
12666;BME280;58531;59.050;17.416;2022-10-30T12:23:29;101180.22;;;8.45;70.82
12666;BME280;58531;59.050;17.416;2022-10-30T12:26:08;101180.22;;;8.45;69.66
12666;BME280;58531;59.050;17.416;2022-10-30T12:28:53;101187.81;;;8.47;71.28
12666;BME280;58531;59.050;17.416;2022-10-30T12:31:42;101199.16;;;8.51;70.17
12666;BME280;58531;59.050;17.416;2022-10-30T12:34:30;101203.38;;;8.48;71.86
12666;BME280;58531;59.050;17.416;2022-10-30T12:46:29;101205.97;;;8.52;68.78
12666;BME280;58531;59.050;17.416;2022-10-30T12:49:10;101206.66;;;8.56;70.19
12666;BME280;58531;59.050;17.416;2022-10-30T12:51:51;101205.03;;;8.62;68.66
12666;BME280;58531;59.050;17.416;2022-10-30T12:54:38;101194.41;;;8.62;71.59
12666;BME280;58531;59.050;17.416;2022-10-30T12:57:34;101180.00;;;8.59;69.95
12666;BME280;58531;59.050;17.416;2022-10-30T13:00:25;101185.25;;;8.63;71.92
12666;BME280;58531;59.050;17.416;2022-10-30T13:03:19;101187.22;;;8.59;72.10
12666;BME280;58531;59.050;17.416;2022-10-30T13:06:18;101191.84;;;8.55;68.73
12666;BME280;58531;59.050;17.416;2022-10-30T13:09:12;101178.06;;;8.60;69.44
12666;BME280;58531;59.050;17.416;2022-10-30T13:11:47;101187.22;;;8.59;70.53
12666;BME280;58531;59.050;17.416;2022-10-30T13:14:37;101183.19;;;8.51;68.44
12666;BME280;58531;59.050;17.416;2022-10-30T13:17:14;101178.72;;;8.44;70.48
12666;BME280;58531;59.050;17.416;2022-10-30T13:19:56;101179.97;;;8.40;68.07
12666;BME280;58531;59.050;17.416;2022-10-30T13:22:41;101181.22;;;8.32;69.82
12666;BME280;58531;59.050;17.416;2022-10-30T13:25:23;101176.81;;;8.22;69.87
12666;BME280;58531;59.050;17.416;2022-10-30T13:28:06;101178.47;;;8.13;70.98
12666;BME280;58531;59.050;17.416;2022-10-30T13:30:55;101186.66;;;7.99;72.53
12666;BME280;58531;59.050;17.416;2022-10-30T13:33:48;101190.75;;;7.80;73.66
12666;BME280;58531;59.050;17.416;2022-10-30T13:36:40;101186.47;;;7.60;74.82
12666;BME280;58531;59.050;17.416;2022-10-30T13:42:47;101191.03;;;7.29;74.95
12666;BME280;58531;59.050;17.416;2022-10-30T13:45:38;101189.63;;;7.21;75.44
12666;BME280;58531;59.050;17.416;2022-10-30T13:48:37;101191.47;;;7.24;72.31
12666;BME280;58531;59.050;17.416;2022-10-30T13:51:57;101181.47;;;7.35;71.17
12666;BME280;58531;59.050;17.416;2022-10-30T13:54:47;101184.66;;;7.23;71.80
12666;BME280;58531;59.050;17.416;2022-10-30T13:57:58;101188.91;;;7.14;72.26
12666;BME280;58531;59.050;17.416;2022-10-30T14:01:08;101198.16;;;7.02;72.54
12666;BME280;58531;59.050;17.416;2022-10-30T14:04:00;101199.81;;;6.90;73.80
12666;BME280;58531;59.050;17.416;2022-10-30T14:06:43;101195.75;;;6.82;74.95
12666;BME280;58531;59.050;17.416;2022-10-30T14:09:33;101203.41;;;6.73;75.57
12666;BME280;58531;59.050;17.416;2022-10-30T14:12:45;101207.66;;;6.63;76.71
12666;BME280;58531;59.050;17.416;2022-10-30T14:15:41;101207.09;;;6.42;77.92
12666;BME280;58531;59.050;17.416;2022-10-30T14:18:58;101206.44;;;6.31;78.11
12666;BME280;58531;59.050;17.416;2022-10-30T14:21:44;101212.53;;;6.24;78.53
12666;BME280;58531;59.050;17.416;2022-10-30T14:24:45;101215.53;;;6.30;77.54
12666;BME280;58531;59.050;17.416;2022-10-30T14:27:27;101209.47;;;6.29;77.63
12666;BME280;58531;59.050;17.416;2022-10-30T14:30:12;101203.84;;;6.24;78.09